createdAt,value
2022-11-01T00:02:16.506Z,4.07
2022-11-01T00:04:44.889Z,3.72
2022-11-01T00:07:13.224Z,4.25
2022-11-01T00:09:41.746Z,4.50
2022-11-01T00:12:10.166Z,3.97
2022-11-01T00:14:38.708Z,4.28
2022-11-01T00:17:08.535Z,4.47
2022-11-01T00:19:36.857Z,5.05
2022-11-01T00:22:05.184Z,6.32
2022-11-01T00:24:33.468Z,6.97
2022-11-01T00:27:01.836Z,8.02
2022-11-01T00:29:30.265Z,7.80
2022-11-01T00:31:58.633Z,8.93
2022-11-01T00:34:28.409Z,8.80
2022-11-01T00:36:56.796Z,9.50
2022-11-01T00:39:30.396Z,8.20
2022-11-01T00:41:59.904Z,8.00
2022-11-01T00:44:28.175Z,8.38
2022-11-01T00:46:56.564Z,8.15
2022-11-01T00:49:24.996Z,8.75
2022-11-01T00:51:54.758Z,8.00
2022-11-01T00:54:23.334Z,8.75
2022-11-01T00:56:51.589Z,9.50
2022-11-01T00:59:20.663Z,10.07
2022-11-01T01:01:49.045Z,10.00
2022-11-01T01:04:17.604Z,10.52
2022-11-01T01:06:45.948Z,9.75
2022-11-01T01:09:15.963Z,9.57
2022-11-01T01:11:44.354Z,9.45
2022-11-01T01:14:12.899Z,8.98
2022-11-01T01:19:10.569Z,15.25
2022-11-01T01:21:39.093Z,11.10
2022-11-01T01:24:07.676Z,8.18
2022-11-01T01:26:37.703Z,7.18
2022-11-01T01:29:06.029Z,6.35
2022-11-01T01:31:34.361Z,6.17
2022-11-01T01:34:02.783Z,5.60
2022-11-01T01:36:31.428Z,4.90
2022-11-01T01:38:59.785Z,4.15
2022-11-01T01:41:46.020Z,4.38
2022-11-01T01:45:03.067Z,4.15
2022-11-01T01:47:32.945Z,4.20
2022-11-01T01:50:04.070Z,3.75
2022-11-01T01:52:35.521Z,3.42
2022-11-01T01:55:08.313Z,3.38
2022-11-01T01:57:38.023Z,4.15
2022-11-01T02:00:09.684Z,3.58
2022-11-01T02:02:38.107Z,3.55
2022-11-01T02:05:15.099Z,3.70
2022-11-01T02:07:44.443Z,3.80
2022-11-01T02:10:14.976Z,4.20
2022-11-01T02:12:47.041Z,4.18
2022-11-01T02:15:17.944Z,4.30
2022-11-01T02:17:59.655Z,4.10
2022-11-01T02:21:06.771Z,3.25
2022-11-01T02:24:10.275Z,2.55
2022-11-01T02:26:59.439Z,2.50
2022-11-01T02:29:56.334Z,2.50
2022-11-01T02:32:34.129Z,2.25
2022-11-01T02:35:06.657Z,2.00
2022-11-01T02:37:40.884Z,1.73
2022-11-01T02:40:16.179Z,1.75
2022-11-01T02:42:48.087Z,1.60
2022-11-01T02:45:29.249Z,1.80
2022-11-01T02:48:00.247Z,1.80
2022-11-01T02:50:31.695Z,1.80
2022-11-01T02:53:01.297Z,2.55
2022-11-01T02:55:34.294Z,1.40
2022-11-01T02:58:05.587Z,1.55
2022-11-01T03:00:36.138Z,1.50
2022-11-01T03:03:21.226Z,1.40
2022-11-01T03:05:59.161Z,1.65
2022-11-01T03:08:33.212Z,2.10
2022-11-01T03:11:10.719Z,1.88
2022-11-01T03:13:54.615Z,1.67
2022-11-01T03:16:32.153Z,1.33
2022-11-01T03:19:20.398Z,1.73
2022-11-01T03:21:53.811Z,1.70
2022-11-01T03:24:27.646Z,1.50
2022-11-01T03:27:02.946Z,1.90
2022-11-01T03:29:33.265Z,1.67
2022-11-01T03:32:04.195Z,1.40
2022-11-01T03:34:36.789Z,1.60
2022-11-01T03:37:11.385Z,1.63
2022-11-01T03:39:44.301Z,1.90
2022-11-01T03:42:16.756Z,1.85
2022-11-01T03:44:48.014Z,1.48
2022-11-01T03:47:16.691Z,1.92
2022-11-01T03:49:46.481Z,1.40
2022-11-01T03:52:14.843Z,1.33
2022-11-01T03:54:43.228Z,1.30
2022-11-01T03:57:11.560Z,1.63
2022-11-01T03:59:39.940Z,1.27
2022-11-01T04:04:36.644Z,1.30
2022-11-01T04:07:06.351Z,1.52
2022-11-01T04:09:34.627Z,1.92
2022-11-01T04:12:02.903Z,1.55
2022-11-01T04:14:48.691Z,1.20
2022-11-01T04:17:34.442Z,1.50
2022-11-01T04:20:19.653Z,1.10
2022-11-01T04:22:49.417Z,1.17
2022-11-01T04:25:17.791Z,1.15
2022-11-01T04:27:46.075Z,0.88
2022-11-01T04:30:14.614Z,1.15
2022-11-01T04:32:44.789Z,1.17
2022-11-01T04:35:13.178Z,1.23
2022-11-01T04:37:41.587Z,1.10
2022-11-01T04:40:13.300Z,1.15
2022-11-01T04:42:42.092Z,1.23
2022-11-01T04:45:11.335Z,0.90
2022-11-01T04:47:39.613Z,1.00
2022-11-01T04:50:08.406Z,0.80
2022-11-01T04:52:36.897Z,1.02
2022-11-01T04:55:05.569Z,1.30
2022-11-01T04:57:39.952Z,1.07
2022-11-01T05:00:11.533Z,1.23
2022-11-01T05:02:41.219Z,1.10
2022-11-01T05:05:11.247Z,0.90
2022-11-01T05:07:39.643Z,0.70
2022-11-01T05:10:09.532Z,0.75
2022-11-01T05:12:39.418Z,1.00
2022-11-01T05:15:09.255Z,1.13
2022-11-01T05:17:41.929Z,1.08
2022-11-01T05:20:11.436Z,1.25
2022-11-01T05:22:39.771Z,0.90
2022-11-01T05:25:09.780Z,1.08
2022-11-01T05:27:40.067Z,1.45
2022-11-01T05:30:09.404Z,1.00
2022-11-01T05:32:38.152Z,1.20
2022-11-01T05:35:07.040Z,1.00
2022-11-01T05:37:36.913Z,1.10
2022-11-01T05:40:06.015Z,1.42
2022-11-01T05:42:34.605Z,1.10
2022-11-01T05:45:04.471Z,1.70
2022-11-01T05:47:34.619Z,1.40
2022-11-01T05:50:03.324Z,1.02
2022-11-01T05:52:31.686Z,1.55
2022-11-01T05:55:00.130Z,1.40
2022-11-01T05:57:33.167Z,1.25
2022-11-01T06:00:05.374Z,1.23
2022-11-01T06:02:34.437Z,1.15
2022-11-01T06:05:03.432Z,1.30
2022-11-01T06:07:31.900Z,1.23
2022-11-01T06:10:00.251Z,1.75
2022-11-01T06:12:28.742Z,1.45
2022-11-01T06:14:57.067Z,1.10
2022-11-01T06:17:26.805Z,1.38
2022-11-01T06:19:55.188Z,1.25
2022-11-01T06:22:23.602Z,1.45
2022-11-01T06:24:51.950Z,1.38
2022-11-01T06:27:20.255Z,1.10
2022-11-01T06:29:48.809Z,1.20
2022-11-01T06:32:17.181Z,1.27
2022-11-01T06:34:47.261Z,1.23
2022-11-01T06:37:15.542Z,1.48
2022-11-01T06:39:43.916Z,1.27
2022-11-01T06:42:12.340Z,1.67
2022-11-01T06:44:40.886Z,1.37
2022-11-01T06:47:09.214Z,1.55
2022-11-01T06:49:37.531Z,1.25
2022-11-01T06:52:07.547Z,1.48
2022-11-01T06:54:35.920Z,1.30
2022-11-01T06:57:04.316Z,1.30
2022-11-01T06:59:32.593Z,1.60
2022-11-01T07:02:01.120Z,1.33
2022-11-01T07:04:30.327Z,1.63
2022-11-01T07:06:58.901Z,1.38
2022-11-01T07:09:28.724Z,1.60
2022-11-01T07:11:57.059Z,1.30
2022-11-01T07:14:25.453Z,1.20
2022-11-01T07:16:53.760Z,1.55
2022-11-01T07:19:23.769Z,1.65
2022-11-01T07:21:52.109Z,1.40
2022-11-01T07:24:20.537Z,1.50
2022-11-01T07:26:50.351Z,1.73
2022-11-01T07:29:20.621Z,1.80
2022-11-01T07:31:48.928Z,1.45
2022-11-01T07:34:17.325Z,1.55
2022-11-01T07:36:45.692Z,1.25
2022-11-01T07:39:14.298Z,1.52
2022-11-01T07:41:42.617Z,1.75
2022-11-01T07:44:12.315Z,1.40
2022-11-01T07:46:40.609Z,0.98
2022-11-01T07:49:09.047Z,1.13
2022-11-01T07:51:37.687Z,1.40
2022-11-01T07:54:06.190Z,1.05
2022-11-01T07:56:34.801Z,1.33
2022-11-01T07:59:03.371Z,1.20
2022-11-01T08:01:33.765Z,1.25
2022-11-01T08:04:02.292Z,1.38
2022-11-01T08:06:30.604Z,1.27
2022-11-01T08:08:58.991Z,2.10
2022-11-01T08:11:27.279Z,2.08
2022-11-01T08:14:00.857Z,1.83
2022-11-01T08:16:34.438Z,1.90
2022-11-01T08:19:02.734Z,1.25
2022-11-01T08:21:31.326Z,2.55
2022-11-01T08:23:59.616Z,1.50
2022-11-01T08:26:27.932Z,1.67
2022-11-01T08:28:56.256Z,1.30
2022-11-01T08:31:24.612Z,1.30
2022-11-01T08:33:54.983Z,1.20
2022-11-01T08:36:23.367Z,2.03
2022-11-01T08:38:53.885Z,1.60
2022-11-01T08:41:23.764Z,1.83
2022-11-01T08:43:52.080Z,1.48
2022-11-01T08:46:20.366Z,1.80
2022-11-01T08:48:48.953Z,2.10
2022-11-01T08:51:25.215Z,1.73
2022-11-01T08:53:55.577Z,2.10
2022-11-01T08:56:24.841Z,1.67
2022-11-01T08:58:54.506Z,2.28
2022-11-01T09:01:24.190Z,2.17
2022-11-01T09:03:53.403Z,1.55
2022-11-01T09:06:23.068Z,2.13
2022-11-01T09:08:53.444Z,2.80
2022-11-01T09:11:21.933Z,3.90
2022-11-01T09:13:50.638Z,3.85
2022-11-01T09:16:18.999Z,3.03
2022-11-01T09:18:47.685Z,3.25
2022-11-01T09:21:17.192Z,2.90
2022-11-01T09:23:47.559Z,2.38
2022-11-01T09:26:16.390Z,2.90
2022-11-01T09:28:44.837Z,2.40
2022-11-01T09:31:20.555Z,2.00
2022-11-01T09:33:50.432Z,2.30
2022-11-01T09:36:18.687Z,2.30
2022-11-01T09:38:48.427Z,2.58
2022-11-01T09:41:27.355Z,2.10
2022-11-01T09:43:57.495Z,2.33
2022-11-01T09:46:31.401Z,2.00
2022-11-01T09:49:01.830Z,2.60
2022-11-01T09:51:31.027Z,2.00
2022-11-01T09:54:04.520Z,2.80
2022-11-01T09:56:40.645Z,2.25
2022-11-01T09:59:21.000Z,2.28
2022-11-01T10:01:57.108Z,2.95
2022-11-01T10:05:07.618Z,2.20
2022-11-01T10:07:44.455Z,2.60
2022-11-01T10:10:29.953Z,2.10
2022-11-01T10:13:20.948Z,2.40
2022-11-01T10:15:57.811Z,2.40
2022-11-01T10:18:29.550Z,2.78
2022-11-01T10:20:58.667Z,2.38
2022-11-01T10:23:44.205Z,2.17
2022-11-01T10:26:19.348Z,2.70
2022-11-01T10:28:53.772Z,2.38
2022-11-01T10:31:25.563Z,2.10
2022-11-01T10:34:00.168Z,2.17
2022-11-01T10:36:32.251Z,2.20
2022-11-01T10:42:10.811Z,2.08
2022-11-01T10:44:42.561Z,1.50
2022-11-01T10:47:19.108Z,1.58
2022-11-01T10:50:07.818Z,2.13
2022-11-01T10:52:47.604Z,2.10
2022-11-01T10:55:19.755Z,1.80
2022-11-01T10:57:56.644Z,1.98
2022-11-01T11:00:25.181Z,2.05
2022-11-01T11:02:56.631Z,2.72
2022-11-01T11:05:29.219Z,2.10
2022-11-01T11:07:57.907Z,2.20
2022-11-01T11:10:29.358Z,2.47
2022-11-01T11:13:04.324Z,2.58
2022-11-01T11:15:40.916Z,2.30
2022-11-01T11:18:21.012Z,2.17
2022-11-01T11:20:53.626Z,2.30
2022-11-01T11:23:23.921Z,2.47
2022-11-01T11:25:52.386Z,2.60
2022-11-01T11:28:27.132Z,3.03
2022-11-01T11:30:56.076Z,2.20
2022-11-01T11:33:24.639Z,2.30
2022-11-01T11:35:58.928Z,2.53
2022-11-01T11:38:45.104Z,1.87
2022-11-01T11:41:26.589Z,2.25
2022-11-01T11:43:56.730Z,2.45
2022-11-01T11:46:25.162Z,2.60
2022-11-01T11:48:57.015Z,2.50
2022-11-01T11:51:28.158Z,2.42
2022-11-01T11:54:20.793Z,2.15
2022-11-01T11:56:51.598Z,2.45
2022-11-01T11:59:26.930Z,2.72
2022-11-01T12:02:00.939Z,2.72
2022-11-01T12:04:36.796Z,2.30
2022-11-01T12:07:07.124Z,2.53
2022-11-01T12:09:45.276Z,2.55
2022-11-01T12:12:21.656Z,2.63
2022-11-01T12:14:52.024Z,3.42
2022-11-01T12:17:31.480Z,2.85
2022-11-01T12:20:09.672Z,1.95
2022-11-01T12:22:40.866Z,2.58
2022-11-01T12:25:15.396Z,2.22
2022-11-01T12:27:51.555Z,2.28
2022-11-01T12:30:24.807Z,2.13
2022-11-01T12:32:55.234Z,1.90
2022-11-01T12:35:27.900Z,2.00
2022-11-01T12:38:21.024Z,2.22
2022-11-01T12:40:53.295Z,2.58
2022-11-01T12:43:25.997Z,2.35
2022-11-01T12:45:58.608Z,2.33
2022-11-01T12:48:31.940Z,2.45
2022-11-01T12:51:04.726Z,2.45
2022-11-01T12:53:39.608Z,2.00
2022-11-01T12:56:08.661Z,2.67
2022-11-01T12:58:37.401Z,2.53
2022-11-01T13:01:21.311Z,2.25
2022-11-01T13:04:02.731Z,2.08
2022-11-01T13:07:14.308Z,2.20
2022-11-01T13:09:53.265Z,1.98
2022-11-01T13:12:32.424Z,1.90
2022-11-01T13:15:07.219Z,1.92
2022-11-01T13:17:44.850Z,2.00
2022-11-01T13:20:29.773Z,2.30
2022-11-01T13:23:07.591Z,2.60
2022-11-01T13:25:40.762Z,2.10
2022-11-01T13:28:19.632Z,2.10
2022-11-01T13:30:56.569Z,2.13
2022-11-01T13:33:32.723Z,2.60
2022-11-01T13:36:06.949Z,2.20
2022-11-01T13:38:42.099Z,2.30
2022-11-01T13:41:20.005Z,2.25
2022-11-01T13:43:52.120Z,2.35
2022-11-01T13:47:08.415Z,2.08
2022-11-01T13:50:18.434Z,2.28
2022-11-01T13:52:51.710Z,2.38
2022-11-01T13:55:25.477Z,2.40
2022-11-01T13:57:55.247Z,2.53
2022-11-01T14:00:44.471Z,2.47
2022-11-01T14:03:22.760Z,2.60
2022-11-01T14:06:26.802Z,2.85
2022-11-01T14:09:27.460Z,2.42
2022-11-01T14:11:57.348Z,2.63
2022-11-01T14:14:51.053Z,2.25
2022-11-01T14:18:03.643Z,2.17
2022-11-01T14:20:49.523Z,2.40
2022-11-01T14:23:54.240Z,2.20
2022-11-01T14:27:08.249Z,2.30
2022-11-01T14:29:37.325Z,2.20
2022-11-01T14:32:06.900Z,2.17
2022-11-01T14:34:39.051Z,2.10
2022-11-01T14:37:21.794Z,2.30
2022-11-01T14:40:02.149Z,2.17
2022-11-01T14:42:39.881Z,2.50
2022-11-01T14:45:27.838Z,2.28
2022-11-01T14:47:59.763Z,2.40
2022-11-01T14:50:32.827Z,2.25
2022-11-01T14:53:10.018Z,1.88
2022-11-01T14:55:39.634Z,2.40
2022-11-01T14:58:11.844Z,1.85
2022-11-01T15:00:40.902Z,2.22
2022-11-01T15:03:11.314Z,1.97
2022-11-01T15:05:46.863Z,1.65
2022-11-01T15:08:26.558Z,2.20
2022-11-01T15:10:57.553Z,2.03
2022-11-01T15:13:29.008Z,2.22
2022-11-01T15:16:06.069Z,2.20
2022-11-01T15:18:34.734Z,2.20
2022-11-01T15:21:03.409Z,1.80
2022-11-01T15:23:35.227Z,1.85
2022-11-01T15:26:08.899Z,2.10
2022-11-01T15:28:42.126Z,1.65
2022-11-01T15:31:11.063Z,2.05
2022-11-01T15:33:40.117Z,1.77
2022-11-01T15:36:20.805Z,1.65
2022-11-01T15:38:54.693Z,2.00
2022-11-01T15:41:28.237Z,1.80
2022-11-01T15:43:59.387Z,2.30
2022-11-01T15:46:31.644Z,1.60
2022-11-01T15:49:02.719Z,1.42
2022-11-01T15:51:31.830Z,2.00
2022-11-01T15:54:04.018Z,1.73
2022-11-01T15:56:42.727Z,1.70
2022-11-01T15:59:22.320Z,1.77
2022-11-01T16:01:51.630Z,1.60
2022-11-01T16:04:22.056Z,1.70
2022-11-01T16:06:57.602Z,1.38
2022-11-01T16:09:33.606Z,1.50
2022-11-01T16:12:05.017Z,1.60
2022-11-01T16:14:38.251Z,1.58
2022-11-01T16:17:09.854Z,1.27
2022-11-01T16:19:42.587Z,1.25
2022-11-01T16:22:30.381Z,1.38
2022-11-01T16:25:22.512Z,1.50
2022-11-01T16:27:57.819Z,1.50
2022-11-01T16:30:45.190Z,1.60
2022-11-01T16:33:23.093Z,1.43
2022-11-01T16:35:53.414Z,1.80
2022-11-01T16:38:38.762Z,1.70
2022-11-01T16:41:15.268Z,1.30
2022-11-01T16:43:44.261Z,1.52
2022-11-01T16:46:14.010Z,1.92
2022-11-01T16:48:57.914Z,1.60
2022-11-01T16:51:31.769Z,1.60
2022-11-01T16:54:02.159Z,1.20
2022-11-01T16:56:37.028Z,1.65
2022-11-01T16:59:09.506Z,1.08
2022-11-01T17:01:39.594Z,1.38
2022-11-01T17:04:09.013Z,1.65
2022-11-01T17:06:39.082Z,2.78
2022-11-01T17:09:14.236Z,1.42
2022-11-01T17:11:47.929Z,1.40
2022-11-01T17:14:19.155Z,1.15
2022-11-01T17:16:51.262Z,1.10
2022-11-01T17:19:24.571Z,1.02
2022-11-01T17:21:54.014Z,1.20
2022-11-01T17:24:26.164Z,1.60
2022-11-01T17:26:59.024Z,1.75
2022-11-01T17:29:27.548Z,1.85
2022-11-01T17:31:57.414Z,1.23
2022-11-01T17:34:26.637Z,1.50
2022-11-01T17:36:55.926Z,1.50
2022-11-01T17:39:25.352Z,2.30
2022-11-01T17:41:53.676Z,1.10
2022-11-01T17:44:22.133Z,2.13
2022-11-01T17:46:50.494Z,1.42
2022-11-01T17:49:23.742Z,3.00
2022-11-01T17:51:54.868Z,2.30
2022-11-01T17:54:23.725Z,1.60
2022-11-01T17:56:52.456Z,2.67
2022-11-01T17:59:20.893Z,1.90
2022-11-01T18:01:49.518Z,2.17
2022-11-01T18:04:19.332Z,2.65
2022-11-01T18:06:48.306Z,2.47
2022-11-01T18:09:23.022Z,5.70
2022-11-01T18:11:56.317Z,5.47
2022-11-01T18:14:37.489Z,3.10
2022-11-01T18:17:22.922Z,3.60
2022-11-01T18:19:57.084Z,4.38
2022-11-01T18:22:35.235Z,3.50
2022-11-01T18:25:25.557Z,2.90
2022-11-01T18:27:56.578Z,2.15
2022-11-01T18:30:25.937Z,2.55
2022-11-01T18:32:59.897Z,2.63
2022-11-01T18:35:34.625Z,2.50
2022-11-01T18:38:23.598Z,2.13
2022-11-01T18:41:00.419Z,2.20
2022-11-01T18:43:32.570Z,1.95
2022-11-01T18:48:50.071Z,2.22
2022-11-01T18:51:26.513Z,1.70
2022-11-01T18:53:57.889Z,1.52
2022-11-01T18:56:26.637Z,1.52
2022-11-01T18:58:56.492Z,2.55
2022-11-01T19:01:31.904Z,2.45
2022-11-01T19:04:05.947Z,2.47
2022-11-01T19:06:35.759Z,2.17
2022-11-01T19:09:22.124Z,2.93
2022-11-01T19:11:55.623Z,2.30
2022-11-01T19:14:24.334Z,1.80
2022-11-01T19:16:54.075Z,1.40
2022-11-01T19:19:23.071Z,1.20
2022-11-01T19:21:55.946Z,1.75
2022-11-01T19:24:33.353Z,1.27
2022-11-01T19:27:03.213Z,1.00
2022-11-01T19:29:34.923Z,1.55
2022-11-01T19:32:05.496Z,2.10
2022-11-01T19:34:38.854Z,1.17
2022-11-01T19:37:29.257Z,2.10
2022-11-01T19:40:00.246Z,3.50
2022-11-01T19:42:31.649Z,2.10
2022-11-01T19:45:03.874Z,1.58
2022-11-01T19:47:39.657Z,1.50
2022-11-01T19:50:17.616Z,1.50
2022-11-01T19:52:48.196Z,1.50
2022-11-01T19:55:38.331Z,1.40
2022-11-01T19:58:37.303Z,1.23
2022-11-01T20:01:41.513Z,1.60
2022-11-01T20:04:17.455Z,1.40
2022-11-01T20:06:51.748Z,2.10
2022-11-01T20:09:25.327Z,2.85
2022-11-01T20:11:54.221Z,1.98
2022-11-01T20:14:22.792Z,2.08
2022-11-01T20:16:51.454Z,2.17
2022-11-01T20:19:20.640Z,1.58
2022-11-01T20:21:49.634Z,1.70
2022-11-01T20:24:17.989Z,2.05
2022-11-01T20:26:47.907Z,2.20
2022-11-01T20:29:16.343Z,1.95
2022-11-01T20:31:44.699Z,2.50
2022-11-01T20:34:13.326Z,2.90
2022-11-01T20:36:46.785Z,3.10
2022-11-01T20:39:24.877Z,2.80
2022-11-01T20:41:55.508Z,2.53
2022-11-01T20:44:24.333Z,2.72
2022-11-01T20:46:53.326Z,2.38
2022-11-01T20:49:21.971Z,2.35
2022-11-01T20:51:50.494Z,2.80
2022-11-01T20:54:19.007Z,5.20
2022-11-01T20:56:48.144Z,5.90
2022-11-01T20:59:21.265Z,5.20
2022-11-01T21:01:50.503Z,4.55
2022-11-01T21:04:19.547Z,3.20
2022-11-01T21:06:48.045Z,2.43
2022-11-01T21:09:30.713Z,1.88
2022-11-01T21:12:00.397Z,1.80
2022-11-01T21:14:37.420Z,1.83
2022-11-01T21:17:15.207Z,1.30
2022-11-01T21:19:44.318Z,1.40
2022-11-01T21:22:19.579Z,1.83
2022-11-01T21:24:48.907Z,2.13
2022-11-01T21:27:34.363Z,1.60
2022-11-01T21:30:17.815Z,1.60
2022-11-01T21:32:48.416Z,1.83
2022-11-01T21:35:41.331Z,1.67
2022-11-01T21:38:41.778Z,1.92
2022-11-01T21:41:31.783Z,1.95
2022-11-01T21:44:13.036Z,3.60
2022-11-01T21:46:47.296Z,4.18
2022-11-01T21:49:28.498Z,5.70
2022-11-01T21:52:00.533Z,3.30
2022-11-01T21:54:30.375Z,2.00
2022-11-01T21:56:59.110Z,2.20
2022-11-01T21:59:28.710Z,2.00
2022-11-01T22:02:01.350Z,2.50
2022-11-01T22:04:31.349Z,3.00
2022-11-01T22:07:00.762Z,2.70
2022-11-01T22:09:29.526Z,3.15
2022-11-01T22:11:59.216Z,3.08
2022-11-01T22:14:27.860Z,2.90
2022-11-01T22:16:58.247Z,3.40
2022-11-01T22:19:26.711Z,3.90
2022-11-01T22:21:55.339Z,1.85
2022-11-01T22:24:24.579Z,1.83
2022-11-01T22:26:52.891Z,2.65
2022-11-01T22:29:21.351Z,1.60
2022-11-01T22:31:49.837Z,2.00
2022-11-01T22:34:19.790Z,2.15
2022-11-01T22:36:48.032Z,1.60
2022-11-01T22:39:20.938Z,1.77
2022-11-01T22:41:49.669Z,2.55
2022-11-01T22:44:19.216Z,2.53
2022-11-01T22:46:55.147Z,2.33
2022-11-01T22:49:30.279Z,2.70
2022-11-01T22:52:03.252Z,2.00
2022-11-01T22:54:36.320Z,1.90
2022-11-01T22:57:14.483Z,2.20
2022-11-01T22:59:47.059Z,1.48
2022-11-01T23:02:28.154Z,1.67
2022-11-01T23:05:23.379Z,1.30
2022-11-01T23:07:53.876Z,1.60
2022-11-01T23:10:25.707Z,1.50
2022-11-01T23:13:16.399Z,1.50
2022-11-01T23:15:45.315Z,1.30
2022-11-01T23:18:19.582Z,1.90
2022-11-01T23:20:54.794Z,1.40
2022-11-01T23:23:23.602Z,1.40
2022-11-01T23:25:53.213Z,2.50
2022-11-01T23:28:22.062Z,1.67
2022-11-01T23:30:52.054Z,1.55
2022-11-01T23:33:22.040Z,1.48
2022-11-01T23:35:54.674Z,1.10
2022-11-01T23:38:29.387Z,1.30
2022-11-01T23:40:59.007Z,1.33
2022-11-01T23:43:34.142Z,1.30
2022-11-01T23:46:03.081Z,1.30
2022-11-01T23:48:31.570Z,1.20
2022-11-01T23:51:01.427Z,1.13
2022-11-01T23:53:34.108Z,1.42
2022-11-01T23:56:04.586Z,0.95
2022-11-01T23:58:33.891Z,1.70
